Time;durP1;ratioP1;P1;durP2;ratioP2;P2;SDS_P1;SDS_P2;PMS_P1;PMS_P2;Temp;Humidity;BMP_temperature;BMP_pressure;BME280_temperature;BME280_humidity;BME280_pressure;Samples;Min_cycle;Max_cycle;Signal;HPM_P1;HPM_P2
2023/03/14 00:01:24;;;;;;;1.20;1.20;;;;;;;18.27;46.02;95660.25;4939282;28;20204;-91
2023/03/14 00:03:51;;;;;;;1.10;1.10;;;;;;;18.63;45.75;95741.28;4952418;28;20238;-91
2023/03/14 00:06:18;;;;;;;1.23;1.17;;;;;;;18.57;46.22;95752.22;4939403;28;20200;-91
2023/03/14 00:08:44;;;;;;;1.13;1.13;;;;;;;18.89;46.15;95852.72;4931546;28;20226;-91
2023/03/14 00:11:16;;;;;;;1.07;1.07;;;;;;;18.92;46.45;95870.56;4946966;28;20747;-91
2023/03/14 00:13:43;;;;;;;1.17;1.10;;;;;;;19.12;46.16;95901.38;4940677;28;20289;-91
2023/03/14 00:16:11;;;;;;;1.40;1.30;;;;;;;18.58;46.20;95787.00;4936010;28;20219;-91
2023/03/14 00:18:38;;;;;;;1.00;1.00;;;;;;;18.89;46.28;95837.44;4934538;28;20214;-91
2023/03/14 00:21:05;;;;;;;1.00;1.00;;;;;;;18.90;46.13;95844.25;4940944;28;20238;-91
2023/03/14 00:23:33;;;;;;;1.10;1.00;;;;;;;18.58;46.14;95769.19;4958842;28;20210;-91
2023/03/14 00:26:04;;;;;;;1.00;1.00;;;;;;;18.76;46.12;95797.41;4950031;28;20203;-91
2023/03/14 00:28:31;;;;;;;1.10;1.10;;;;;;;19.30;45.91;95888.94;4952748;28;20212;-91
2023/03/14 00:30:57;;;;;;;1.20;1.20;;;;;;;18.76;46.30;95819.44;4955112;28;20298;-91
2023/03/14 00:33:24;;;;;;;1.27;1.17;;;;;;;18.88;46.08;95850.16;4951745;28;20206;-91
2023/03/14 00:35:58;;;;;;;2.70;1.20;;;;;;;18.60;46.07;95802.28;4930623;28;20218;-90
2023/03/14 00:38:25;;;;;;;1.00;1.00;;;;;;;18.71;46.24;95801.56;4941690;28;20210;-91
2023/03/14 00:40:52;;;;;;;1.23;1.13;;;;;;;17.72;46.24;95620.56;4955497;28;21019;-90
2023/03/14 00:43:21;;;;;;;1.20;1.10;;;;;;;18.62;46.20;95781.09;4946555;28;20202;-90
2023/03/14 00:45:49;;;;;;;1.00;1.00;;;;;;;18.60;46.15;95792.97;4959434;28;20211;-91
2023/03/14 00:48:17;;;;;;;1.10;1.10;;;;;;;19.30;46.32;95927.97;4957608;28;20454;-91
2023/03/14 00:50:43;;;;;;;1.20;1.20;;;;;;;18.46;46.22;95778.34;4935059;28;20233;-91
2023/03/14 00:53:10;;;;;;;1.00;1.00;;;;;;;18.83;46.32;95846.72;4929750;28;20556;-91
2023/03/14 00:55:38;;;;;;;1.03;1.03;;;;;;;19.11;46.28;95909.84;4951945;28;20249;-91
2023/03/14 00:58:04;;;;;;;1.00;1.00;;;;;;;18.44;46.12;95772.41;4944540;28;20312;-91
2023/03/14 01:00:31;;;;;;;1.10;1.00;;;;;;;18.51;46.18;95802.16;4952263;28;20227;-91
2023/03/14 01:02:57;;;;;;;1.10;1.10;;;;;;;18.50;46.08;95791.13;4934770;28;20246;-90
2023/03/14 01:05:24;;;;;;;0.90;0.90;;;;;;;18.47;46.02;95788.53;4942218;28;20298;-91
2023/03/14 01:07:51;;;;;;;1.20;1.10;;;;;;;18.88;45.97;95855.22;4966209;28;20207;-90
2023/03/14 01:10:17;;;;;;;1.00;1.00;;;;;;;18.56;46.14;95810.72;4942471;28;20231;-91
2023/03/14 01:12:44;;;;;;;1.10;1.10;;;;;;;18.52;46.38;95798.78;4954452;28;20212;-91
2023/03/14 01:15:11;;;;;;;0.93;0.93;;;;;;;18.73;46.43;95824.50;4957585;28;20211;-91
2023/03/14 01:17:40;;;;;;;1.10;1.10;;;;;;;18.36;46.17;95769.72;4964384;28;20219;-90
2023/03/14 01:20:11;;;;;;;1.17;1.17;;;;;;;18.65;46.17;95832.03;4961054;28;20230;-91
2023/03/14 01:22:39;;;;;;;1.00;1.00;;;;;;;18.60;46.25;95826.03;4935256;28;20641;-91
2023/03/14 01:25:07;;;;;;;1.07;1.07;;;;;;;18.52;46.24;95817.44;4950852;28;20410;-91
2023/03/14 01:27:33;;;;;;;1.63;1.20;;;;;;;18.41;46.12;95805.41;4940043;28;20209;-91
2023/03/14 01:30:00;;;;;;;1.33;1.07;;;;;;;19.09;46.08;95927.66;4931744;28;20224;-91
2023/03/14 01:32:26;;;;;;;1.00;1.00;;;;;;;19.18;46.18;95948.16;4947805;28;20210;-91
2023/03/14 01:34:53;;;;;;;1.10;1.00;;;;;;;18.78;46.12;95886.50;4951300;28;20207;-89
2023/03/14 01:37:20;;;;;;;1.17;1.17;;;;;;;18.81;46.28;95872.13;4960631;28;20227;-91
2023/03/14 01:39:46;;;;;;;1.00;1.00;;;;;;;18.80;46.27;95859.38;4941703;28;20609;-92
2023/03/14 01:42:14;;;;;;;1.00;1.00;;;;;;;18.70;46.36;95832.09;4957051;28;20730;-91
2023/03/14 01:44:54;;;;;;;0.90;0.90;;;;;;;18.58;46.11;95787.00;4952789;28;20246;-91
2023/03/14 01:47:39;;;;;;;1.00;1.00;;;;;;;19.28;46.25;95910.97;4953999;28;20206;-91
2023/03/14 01:50:10;;;;;;;1.00;1.00;;;;;;;18.89;46.16;95841.69;4926805;28;20317;-91
2023/03/14 01:52:41;;;;;;;0.90;0.90;;;;;;;19.04;46.20;95837.63;4932675;28;20211;-91
2023/03/14 01:55:24;;;;;;;1.00;1.00;;;;;;;18.91;46.34;95805.25;4936458;28;20212;-91
2023/03/14 01:57:58;;;;;;;1.33;1.27;;;;;;;18.50;46.08;95724.16;4957864;28;20249;-91
2023/03/14 02:00:25;;;;;;;1.17;1.10;;;;;;;19.27;46.30;95838.81;5002776;23;20234;-84
2023/03/14 02:02:54;;;;;;;1.00;1.00;;;;;;;18.35;46.30;95681.53;5014526;28;20221;-84
2023/03/14 02:05:23;;;;;;;1.10;1.10;;;;;;;18.95;46.14;95770.50;4996645;28;20301;-84
2023/03/14 02:07:57;;;;;;;1.00;1.00;;;;;;;19.00;46.37;95759.53;5013490;28;20249;-84
2023/03/14 02:10:27;;;;;;;1.10;1.10;;;;;;;18.68;46.20;95674.34;4990382;28;20241;-85
2023/03/14 02:12:54;;;;;;;1.10;1.10;;;;;;;19.28;46.39;95776.00;5010095;28;20601;-84
2023/03/14 02:15:21;;;;;;;0.90;0.90;;;;;;;18.98;46.13;95714.53;4981920;28;20212;-84
2023/03/14 02:17:48;;;;;;;1.00;1.00;;;;;;;18.76;45.93;95677.81;5012566;28;20253;-84
2023/03/14 02:20:34;;;;;;;1.53;1.00;;;;;;;19.29;46.31;95767.50;4979458;28;20226;-84
2023/03/14 02:23:00;;;;;;;1.00;1.00;;;;;;;17.79;46.29;95499.53;4993918;28;20209;-85
2023/03/14 02:25:47;;;;;;;1.20;1.10;;;;;;;19.28;46.22;95751.41;5013127;28;20680;-84
2023/03/14 02:28:13;;;;;;;1.07;1.00;;;;;;;19.22;46.13;95745.34;5012215;28;20205;-84
2023/03/14 02:30:40;;;;;;;1.13;1.10;;;;;;;18.23;46.19;95600.03;5005242;28;20226;-84
2023/03/14 02:33:08;;;;;;;1.17;1.17;;;;;;;19.28;46.14;95783.63;4992319;28;20206;-84
2023/03/14 02:35:40;;;;;;;0.90;0.90;;;;;;;18.87;46.25;95732.25;5022262;28;20413;-84
2023/03/14 02:38:33;;;;;;;0.97;0.97;;;;;;;19.27;46.21;95797.22;5012785;28;20712;-84
2023/03/14 02:41:00;;;;;;;1.03;1.03;;;;;;;19.27;46.51;95804.84;5011621;28;20237;-84
2023/03/14 02:43:26;;;;;;;0.83;0.83;;;;;;;19.25;46.41;95807.34;5008971;28;20285;-84
2023/03/14 02:45:53;;;;;;;1.17;1.10;;;;;;;19.23;46.54;95826.84;5019667;28;20202;-84
2023/03/14 02:48:23;;;;;;;0.90;0.90;;;;;;;19.26;46.13;95829.44;4996198;28;20297;-84
2023/03/14 02:50:50;;;;;;;1.00;1.00;;;;;;;18.45;46.44;95706.31;5013387;28;20230;-84
2023/03/14 02:53:19;;;;;;;1.20;1.10;;;;;;;19.26;46.35;95839.63;5011767;28;20206;-84
2023/03/14 02:55:47;;;;;;;1.20;1.20;;;;;;;18.77;46.25;95748.22;5005554;28;20580;-84
2023/03/14 02:58:13;;;;;;;1.00;1.00;;;;;;;18.93;46.36;95767.94;4977865;28;20223;-84
2023/03/14 03:00:40;;;;;;;1.00;1.00;;;;;;;19.26;46.08;95823.47;5011506;28;20317;-84
2023/03/14 03:03:06;;;;;;;0.90;0.90;;;;;;;19.27;46.32;95822.69;5027553;28;20581;-85
2023/03/14 03:05:33;;;;;;;0.93;0.93;;;;;;;18.90;47.12;95770.44;5008683;28;20203;-83
2023/03/14 03:08:00;;;;;;;1.00;1.00;;;;;;;18.87;46.33;95754.28;5008854;28;20224;-84
2023/03/14 03:10:27;;;;;;;1.00;1.00;;;;;;;17.99;46.39;95604.81;4995521;28;20222;-84
2023/03/14 03:12:54;;;;;;;0.90;0.90;;;;;;;19.26;46.33;95819.25;5028408;28;20210;-84
2023/03/14 03:15:20;;;;;;;1.00;1.00;;;;;;;19.25;46.25;95815.00;5010530;28;20669;-84
2023/03/14 03:17:47;;;;;;;0.90;0.90;;;;;;;18.96;46.36;95767.13;5017232;28;20277;-84
2023/03/14 03:20:14;;;;;;;0.93;0.93;;;;;;;19.27;46.35;95820.13;4993594;28;20321;-84
2023/03/14 03:22:40;;;;;;;1.00;1.00;;;;;;;19.27;46.73;95804.84;4995259;28;20214;-84
2023/03/14 03:25:07;;;;;;;1.03;1.03;;;;;;;19.27;46.37;95799.78;4995331;28;20213;-84
2023/03/14 03:27:34;;;;;;;0.87;0.87;;;;;;;19.26;46.32;95796.31;5008140;28;20210;-84
2023/03/14 03:30:01;;;;;;;1.00;1.00;;;;;;;17.92;46.30;95568.31;5022893;28;20229;-84
2023/03/14 03:32:27;;;;;;;1.00;1.00;;;;;;;18.90;46.34;95721.22;4995163;28;20581;-83
2023/03/14 03:34:54;;;;;;;0.90;0.90;;;;;;;18.74;46.48;95682.03;4990956;28;20206;-84
2023/03/14 03:37:21;;;;;;;0.93;0.93;;;;;;;18.89;46.48;95714.44;5011168;28;20313;-84
2023/03/14 03:39:50;;;;;;;1.00;1.00;;;;;;;17.97;46.26;95563.31;5011676;28;20300;-84
2023/03/14 03:42:16;;;;;;;0.87;0.87;;;;;;;18.90;46.34;95717.00;5011277;28;20210;-84
2023/03/14 03:44:43;;;;;;;0.80;0.80;;;;;;;18.88;46.28;95715.25;5008412;28;20627;-84
2023/03/14 03:47:10;;;;;;;0.90;0.90;;;;;;;18.26;46.27;95605.16;5009251;28;20877;-82
2023/03/14 03:49:36;;;;;;;0.90;0.90;;;;;;;18.92;46.16;95717.03;4993393;28;20280;-84
2023/03/14 03:52:03;;;;;;;0.90;0.90;;;;;;;18.89;46.42;95707.63;4986260;28;20641;-84
2023/03/14 03:54:30;;;;;;;1.00;1.00;;;;;;;19.26;46.29;95775.09;4977659;28;20717;-84
2023/03/14 03:56:56;;;;;;;1.03;1.00;;;;;;;17.57;46.79;95493.38;5010845;28;20236;-82
2023/03/14 03:59:23;;;;;;;1.00;1.00;;;;;;;18.92;46.76;95724.66;4993420;28;20261;-84
2023/03/14 04:01:49;;;;;;;1.00;1.00;;;;;;;19.26;46.39;95775.09;5011133;28;20210;-84
2023/03/14 04:04:16;;;;;;;1.00;1.00;;;;;;;19.25;46.61;95764.06;5008651;28;20293;-84
2023/03/14 04:06:43;;;;;;;1.00;1.00;;;;;;;18.40;46.12;95615.50;5010040;28;20237;-84
2023/03/14 04:09:10;;;;;;;0.90;0.90;;;;;;;18.93;46.40;95688.19;4990251;28;20202;-84
2023/03/14 04:11:36;;;;;;;0.87;0.87;;;;;;;18.71;46.71;95659.09;4994722;28;20237;-84
2023/03/14 04:14:03;;;;;;;1.00;1.00;;;;;;;18.36;46.36;95595.94;4990401;28;20672;-82
2023/03/14 04:16:31;;;;;;;0.83;0.83;;;;;;;19.08;46.38;95714.66;4978906;28;20202;-84
2023/03/14 04:18:57;;;;;;;1.00;1.00;;;;;;;19.25;46.44;95741.16;4994571;28;20215;-82
2023/03/14 04:21:24;;;;;;;0.90;0.90;;;;;;;18.61;46.33;95636.94;5004381;28;20294;-84
2023/03/14 04:23:51;;;;;;;0.90;0.90;;;;;;;18.23;46.53;95574.59;4994624;28;20704;-84
2023/03/14 04:26:17;;;;;;;0.90;0.90;;;;;;;19.26;46.30;95741.97;5009126;28;20207;-84
2023/03/14 04:28:44;;;;;;;1.00;1.00;;;;;;;18.34;46.43;95590.84;4994012;28;20226;-84
2023/03/14 04:31:16;;;;;;;1.10;1.10;;;;;;;18.87;46.38;95685.56;4975167;28;20228;-84
2023/03/14 04:33:42;;;;;;;0.90;0.90;;;;;;;18.67;46.19;95659.03;5011112;28;20576;-84
2023/03/14 04:36:11;;;;;;;0.93;0.93;;;;;;;18.23;46.24;95583.94;5010030;28;20225;-84
2023/03/14 04:38:38;;;;;;;0.90;0.90;;;;;;;18.29;46.61;95592.47;5011495;28;20272;-84
2023/03/14 04:41:05;;;;;;;0.90;0.90;;;;;;;18.60;46.38;95647.09;5008570;28;20769;-83
2023/03/14 04:43:31;;;;;;;0.90;0.90;;;;;;;18.76;46.24;95677.81;5000728;28;20202;-83
2023/03/14 04:45:58;;;;;;;1.00;1.00;;;;;;;19.27;46.39;95764.13;4990219;28;20202;-84
2023/03/14 04:48:25;;;;;;;0.90;0.90;;;;;;;17.68;46.45;95483.34;4997278;28;20281;-84
2023/03/14 04:50:52;;;;;;;0.90;0.90;;;;;;;18.93;46.26;95701.75;4999677;28;20237;-85
2023/03/14 04:53:18;;;;;;;1.00;1.00;;;;;;;17.09;46.25;95372.56;4974707;28;20676;-84
2023/03/14 04:55:52;;;;;;;0.90;0.90;;;;;;;19.27;46.39;95739.47;4974735;28;20580;-82
2023/03/14 04:58:19;;;;;;;0.90;0.90;;;;;;;19.28;46.41;95747.97;5010120;28;20694;-84
2023/03/14 05:00:46;;;;;;;1.00;1.00;;;;;;;19.26;46.40;95745.38;5010707;28;20720;-82
2023/03/14 05:03:14;;;;;;;0.90;0.90;;;;;;;17.08;46.46;95355.66;5010726;28;20201;-85
2023/03/14 05:05:41;;;;;;;1.00;1.00;;;;;;;18.95;46.59;95678.88;4992638;28;20206;-84
2023/03/14 05:08:07;;;;;;;0.90;0.90;;;;;;;18.90;46.34;95663.56;5001794;28;20203;-84
2023/03/14 05:10:34;;;;;;;0.93;0.93;;;;;;;18.97;46.32;95664.44;4990992;28;20233;-84
2023/03/14 05:13:00;;;;;;;0.80;0.80;;;;;;;19.25;46.28;95709.72;5006253;28;20789;-84
2023/03/14 05:15:27;;;;;;;1.00;1.00;;;;;;;19.27;46.67;95700.44;5004813;28;20230;-84
2023/03/14 05:17:54;;;;;;;0.90;0.90;;;;;;;19.00;46.44;95656.84;5021066;28;20701;-83
2023/03/14 05:20:21;;;;;;;1.00;1.00;;;;;;;18.89;46.39;95631.28;5009707;28;20226;-84
2023/03/14 05:22:47;;;;;;;1.10;1.10;;;;;;;17.77;46.40;95430.94;4993814;28;20206;-84
2023/03/14 05:25:14;;;;;;;0.90;0.90;;;;;;;19.27;46.49;95687.72;4985504;28;20209;-84
2023/03/14 05:27:40;;;;;;;1.00;1.00;;;;;;;18.39;46.53;95538.38;5006628;28;20290;-84
2023/03/14 05:30:08;;;;;;;0.90;0.90;;;;;;;19.28;46.54;95681.78;4993957;28;20227;-82
2023/03/14 05:32:34;;;;;;;0.87;0.87;;;;;;;19.08;46.18;95657.78;4997418;28;20210;-84
2023/03/14 05:35:01;;;;;;;1.00;1.00;;;;;;;18.93;46.76;95635.59;4993150;28;20203;-84
2023/03/14 05:37:27;;;;;;;0.87;0.87;;;;;;;18.65;46.80;95587.81;5011099;28;20214;-84
2023/03/14 05:39:54;;;;;;;0.90;0.90;;;;;;;19.28;46.42;95699.59;5013352;28;20312;-84
2023/03/14 05:42:21;;;;;;;0.90;0.90;;;;;;;18.38;46.72;95544.28;5013547;28;20210;-84
2023/03/14 05:44:47;;;;;;;0.80;0.80;;;;;;;19.28;46.51;95691.97;4973095;28;20773;-84
2023/03/14 05:47:14;;;;;;;1.00;1.00;;;;;;;19.28;46.38;95691.97;5014373;28;20205;-84
2023/03/14 05:49:40;;;;;;;0.90;0.90;;;;;;;18.96;46.32;95627.13;5013307;28;20258;-84
2023/03/14 05:52:07;;;;;;;1.00;1.00;;;;;;;17.18;46.38;95324.47;5000359;28;20211;-85
2023/03/14 05:54:34;;;;;;;0.87;0.87;;;;;;;18.85;46.43;95605.81;4995713;28;20219;-84
2023/03/14 05:57:00;;;;;;;0.90;0.90;;;;;;;18.92;46.46;95618.59;4974248;28;20249;-84
2023/03/14 05:59:27;;;;;;;0.80;0.80;;;;;;;19.28;46.42;95675.00;5014419;28;20928;-84
2023/03/14 06:01:53;;;;;;;0.97;0.97;;;;;;;18.23;46.34;95492.44;4997087;28;20553;-84
2023/03/14 06:04:20;;;;;;;0.90;0.90;;;;;;;19.30;46.14;95669.91;5011895;28;20289;-84
2023/03/14 06:06:46;;;;;;;0.93;0.93;;;;;;;18.63;45.95;95561.50;4995217;28;20257;-84
2023/03/14 06:09:13;;;;;;;0.90;0.90;;;;;;;19.30;46.49;95672.47;5002965;28;20721;-83
2023/03/14 06:11:40;;;;;;;0.90;0.90;;;;;;;19.29;46.24;95671.59;5013597;28;20233;-84
2023/03/14 06:14:06;;;;;;;0.80;0.80;;;;;;;19.30;46.40;95669.91;4990521;28;20286;-84
2023/03/14 06:16:33;;;;;;;1.00;0.90;;;;;;;18.56;46.27;95544.47;5013638;28;20206;-84
2023/03/14 06:18:59;;;;;;;0.80;0.80;;;;;;;17.61;46.11;95380.81;4981156;28;20301;-82
2023/03/14 06:21:26;;;;;;;0.90;0.90;;;;;;;19.30;46.29;95664.81;5013588;28;20701;-84
2023/03/14 06:23:52;;;;;;;0.73;0.73;;;;;;;19.29;46.41;95671.59;4997612;28;20238;-84
2023/03/14 06:26:19;;;;;;;1.00;1.00;;;;;;;19.30;46.23;95673.28;5013430;28;20285;-84
2023/03/14 06:28:46;;;;;;;1.00;1.00;;;;;;;19.13;46.19;95656.13;5009061;28;20207;-83
2023/03/14 06:31:12;;;;;;;1.00;1.00;;;;;;;18.98;46.36;95618.66;5004796;28;20226;-83
2023/03/14 06:33:39;;;;;;;1.10;1.00;;;;;;;17.95;46.53;95446.38;5009591;28;20203;-84
2023/03/14 06:36:06;;;;;;;0.90;0.90;;;;;;;18.84;46.30;95592.25;4992649;28;20513;-84
2023/03/14 06:38:33;;;;;;;0.80;0.80;;;;;;;19.30;46.30;95670.75;4997958;28;20224;-84
2023/03/14 06:41:06;;;;;;;0.90;0.90;;;;;;;18.94;46.36;95613.53;5012557;28;20222;-84
2023/03/14 06:43:33;;;;;;;0.83;0.83;;;;;;;18.95;46.33;95621.16;4999718;28;20226;-83
2023/03/14 06:45:59;;;;;;;0.90;0.90;;;;;;;19.30;46.32;95673.28;4998688;28;20206;-84
2023/03/14 06:48:26;;;;;;;3.90;1.00;;;;;;;19.31;46.52;95674.16;5011403;28;20203;-83
2023/03/14 06:50:52;;;;;;;0.90;0.90;;;;;;;19.04;46.32;95625.50;5014359;28;20701;-84
2023/03/14 06:53:19;;;;;;;0.90;0.90;;;;;;;17.22;46.40;95321.09;5024032;28;20213;-84
2023/03/14 06:55:46;;;;;;;0.90;0.90;;;;;;;18.69;46.89;95563.25;5013074;28;20617;-81
2023/03/14 06:58:12;;;;;;;0.90;0.90;;;;;;;18.87;46.21;95587.19;4980467;28;20214;-83
2023/03/14 07:00:39;;;;;;;1.00;1.00;;;;;;;18.02;46.54;95439.66;5026739;28;20232;-84
2023/03/14 07:03:05;;;;;;;0.90;0.90;;;;;;;19.31;46.43;95658.88;5013923;28;20662;-84
2023/03/14 07:05:32;;;;;;;0.80;0.80;;;;;;;18.73;46.49;95564.97;5011459;28;20210;-83
2023/03/14 07:07:58;;;;;;;1.10;1.00;;;;;;;19.01;46.25;95620.41;4984092;28;20619;-84
2023/03/14 07:10:25;;;;;;;0.90;0.90;;;;;;;18.27;46.58;95492.47;5012070;28;20237;-84
2023/03/14 07:12:53;;;;;;;0.90;0.90;;;;;;;19.32;46.04;95678.41;4977141;28;20238;-83
2023/03/14 07:15:20;;;;;;;0.90;0.90;;;;;;;19.00;45.85;95622.06;5011115;28;20206;-83
2023/03/14 07:17:47;;;;;;;1.00;1.00;;;;;;;19.31;46.28;95690.31;4980386;28;20301;-81
2023/03/14 07:20:14;;;;;;;0.83;0.83;;;;;;;18.75;46.05;95597.25;5009090;28;20222;-84
2023/03/14 07:22:41;;;;;;;3.13;1.20;;;;;;;19.33;46.24;95700.50;4996191;28;20580;-84
2023/03/14 07:25:11;;;;;;;1.17;1.13;;;;;;;18.85;46.35;95633.78;5028099;28;20230;-84
2023/03/14 07:27:38;;;;;;;1.00;1.00;;;;;;;18.97;46.37;95651.72;5011826;28;20646;-84
2023/03/14 07:30:05;;;;;;;1.00;1.00;;;;;;;18.35;46.29;95554.41;4994817;28;20272;-84
2023/03/14 07:32:32;;;;;;;1.43;1.10;;;;;;;19.30;46.41;95718.31;5011054;28;20230;-83
2023/03/14 07:34:58;;;;;;;1.23;1.13;;;;;;;19.31;46.46;95732.72;5013868;28;20210;-83
2023/03/14 07:37:25;;;;;;;1.30;1.00;;;;;;;18.73;46.49;95628.59;4995611;28;20209;-84
2023/03/14 07:39:52;;;;;;;1.17;1.10;;;;;;;19.30;46.40;95723.41;4991650;28;20310;-83
2023/03/14 07:42:18;;;;;;;0.80;0.80;;;;;;;18.95;46.25;95666.16;5009835;28;20384;-84
2023/03/14 07:44:45;;;;;;;1.20;1.10;;;;;;;19.30;46.60;95725.94;5010457;28;20241;-84
2023/03/14 07:47:11;;;;;;;0.83;0.83;;;;;;;19.29;46.41;95722.53;5003177;28;20242;-83
2023/03/14 07:49:38;;;;;;;1.00;1.00;;;;;;;19.30;46.54;95721.69;5009360;28;20218;-83
2023/03/14 07:52:04;;;;;;;1.10;1.00;;;;;;;19.29;46.37;95724.22;4998618;28;20292;-84
2023/03/14 07:54:31;;;;;;;1.20;1.10;;;;;;;19.29;46.04;95730.19;5011577;28;20210;-84
2023/03/14 07:57:00;;;;;;;1.10;1.00;;;;;;;19.29;45.96;95726.75;5011770;28;20233;-83
2023/03/14 07:59:27;;;;;;;1.13;1.10;;;;;;;14.43;46.46;94897.06;5054223;22;20229;-90
2023/03/14 08:01:54;;;;;;;1.07;1.00;;;;;;;18.54;46.12;95593.63;4959977;28;20304;-92
2023/03/14 08:04:20;;;;;;;0.90;0.90;;;;;;;18.92;46.31;95658.50;4989641;28;20230;-90
2023/03/14 08:06:47;;;;;;;1.10;1.00;;;;;;;18.66;46.38;95617.50;4992736;28;20658;-90
2023/03/14 08:09:17;;;;;;;1.77;1.00;;;;;;;18.91;45.65;95651.66;4958735;28;20195;-88
2023/03/14 08:11:43;;;;;;;1.30;1.20;;;;;;;19.20;45.52;95698.63;4966575;28;20651;-91
2023/03/14 08:14:11;;;;;;;1.00;1.00;;;;;;;18.54;45.59;95588.53;4971349;28;20286;-89
2023/03/14 08:16:37;;;;;;;1.00;1.00;;;;;;;18.63;45.60;95597.13;4955796;28;20723;-90
2023/03/14 08:19:04;;;;;;;0.90;0.90;;;;;;;17.89;46.00;95479.34;4971426;28;20251;-89
2023/03/14 08:21:30;;;;;;;1.13;0.90;;;;;;;18.71;46.59;95609.94;4957677;28;20258;-88
2023/03/14 08:23:57;;;;;;;2.60;1.20;;;;;;;18.82;46.26;95627.00;4974489;28;20658;-89
2023/03/14 08:26:23;;;;;;;2.90;1.10;;;;;;;18.90;46.22;95637.25;4974579;28;20231;-89
2023/03/14 08:28:50;;;;;;;1.97;1.30;;;;;;;18.61;46.69;95578.44;4974774;28;20226;-91
2023/03/14 08:31:16;;;;;;;1.43;1.07;;;;;;;18.32;46.22;95544.19;4942523;28;20310;-89
2023/03/14 08:33:43;;;;;;;2.43;1.20;;;;;;;19.10;46.36;95671.38;4974648;28;20207;-89
2023/03/14 08:36:10;;;;;;;1.30;1.20;;;;;;;19.04;46.05;95638.25;4955048;28;20298;-91
2023/03/14 08:38:36;;;;;;;5.37;1.23;;;;;;;18.61;46.07;95558.09;4934701;28;21401;-91
2023/03/14 08:41:03;;;;;;;5.40;1.20;;;;;;;18.98;45.90;95635.63;4958132;28;20290;-88
2023/03/14 08:43:30;;;;;;;1.70;1.10;;;;;;;18.79;46.06;95596.44;4958351;28;20663;-90
2023/03/14 08:45:58;;;;;;;4.10;1.20;;;;;;;18.78;46.05;95592.19;4958905;28;20294;-91
2023/03/14 08:48:24;;;;;;;1.77;1.30;;;;;;;17.90;46.15;95449.72;4940011;28;20231;-89
2023/03/14 08:50:51;;;;;;;3.53;1.10;;;;;;;18.75;46.07;95591.28;4955011;28;20219;-89
2023/03/14 08:53:18;;;;;;;1.27;1.17;;;;;;;18.98;46.36;95618.66;4966614;28;20237;-91
2023/03/14 08:55:44;;;;;;;1.73;1.13;;;;;;;18.80;46.50;95618.47;4956141;28;20199;-89
2023/03/14 08:58:11;;;;;;;1.97;1.30;;;;;;;18.73;46.42;95580.25;4955576;28;20207;-89
2023/03/14 09:00:38;;;;;;;1.37;1.27;;;;;;;18.55;46.27;95563.13;4982016;28;20235;-90
2023/03/14 09:03:05;;;;;;;2.10;1.30;;;;;;;18.97;46.31;95647.50;4946384;28;20217;-90
2023/03/14 09:05:35;;;;;;;1.30;1.20;;;;;;;18.42;46.17;95535.00;4944729;28;20634;-91
2023/03/14 09:08:01;;;;;;;1.20;1.10;;;;;;;19.08;45.95;95652.69;4978420;28;20249;-89
2023/03/14 09:10:28;;;;;;;1.37;1.20;;;;;;;19.05;45.69;95632.28;4943487;28;20223;-89
2023/03/14 09:12:54;;;;;;;1.33;1.07;;;;;;;18.73;46.04;95576.00;4959184;28;20236;-91
2023/03/14 09:15:21;;;;;;;2.20;0.97;;;;;;;18.12;46.17;95482.16;4961660;28;20207;-89
2023/03/14 09:17:48;;;;;;;1.97;1.20;;;;;;;19.20;45.51;95658.75;4962262;28;20303;-89
2023/03/14 09:20:15;;;;;;;1.93;1.20;;;;;;;18.78;46.08;95576.94;4961574;28;20228;-90
2023/03/14 09:22:41;;;;;;;1.23;1.10;;;;;;;18.82;46.07;95605.78;4958606;28;20214;-90
2023/03/14 09:25:08;;;;;;;1.23;1.00;;;;;;;19.10;46.20;95631.50;4961720;28;20205;-90
2023/03/14 09:27:35;;;;;;;1.10;1.00;;;;;;;19.39;46.18;95688.66;4944465;28;20215;-91
2023/03/14 09:30:02;;;;;;;1.50;1.13;;;;;;;18.72;46.24;95573.47;4977513;28;20219;-91
2023/03/14 09:32:31;;;;;;;2.70;1.20;;;;;;;18.96;46.15;95602.53;4960306;28;20199;-91
2023/03/14 09:34:58;;;;;;;1.80;1.00;;;;;;;19.26;46.16;95656.25;4978074;28;20202;-90
2023/03/14 09:37:24;;;;;;;0.93;0.93;;;;;;;19.32;45.93;95665.66;4987020;28;20585;-90
2023/03/14 09:39:51;;;;;;;1.30;1.17;;;;;;;18.58;46.34;95547.91;4966750;28;20694;-90
2023/03/14 09:42:20;;;;;;;2.73;1.17;;;;;;;19.19;46.36;95639.19;4945757;28;20290;-90
2023/03/14 09:44:59;;;;;;;1.20;1.10;;;;;;;19.20;46.18;95642.63;4958556;28;20239;-89
2023/03/14 09:47:25;;;;;;;1.23;1.20;;;;;;;19.00;46.18;95608.47;4969579;28;20281;-90
2023/03/14 09:49:52;;;;;;;1.67;1.10;;;;;;;18.47;46.12;95515.56;4957900;28;20230;-90
2023/03/14 09:52:19;;;;;;;1.30;1.20;;;;;;;19.38;46.21;95669.13;4977669;28;20211;-90
2023/03/14 09:54:48;;;;;;;1.20;1.10;;;;;;;18.75;45.95;95561.63;4982958;28;20578;-90
2023/03/14 09:57:16;;;;;;;1.60;1.20;;;;;;;18.62;46.24;95539.44;4973742;28;20207;-90
2023/03/14 09:59:46;;;;;;;1.27;1.10;;;;;;;19.22;46.13;95644.31;4941433;28;20233;-90
2023/03/14 10:02:34;;;;;;;1.43;1.10;;;;;;;19.38;46.06;95670.81;4973413;28;20352;-90
2023/03/14 10:05:00;;;;;;;0.90;0.90;;;;;;;19.30;46.10;95649.53;4976226;28;20209;-91
2023/03/14 10:07:32;;;;;;;1.17;1.13;;;;;;;17.83;46.34;95402.22;4976634;28;20219;-90
2023/03/14 10:09:59;;;;;;;1.57;1.10;;;;;;;18.72;46.25;95548.88;4976289;28;20215;-91
2023/03/14 10:12:36;;;;;;;2.20;1.00;;;;;;;18.58;46.36;95517.38;4957792;28;20663;-90
2023/03/14 10:15:14;;;;;;;1.20;1.00;;;;;;;18.09;46.35;95442.28;4973632;28;20969;-90
2023/03/14 10:17:46;;;;;;;1.40;1.00;;;;;;;18.99;46.32;95581.34;4945607;28;20238;-90
2023/03/14 10:20:32;;;;;;;1.40;1.27;;;;;;;19.39;46.19;95647.91;4945463;28;20821;-90
2023/03/14 10:23:11;;;;;;;1.20;1.10;;;;;;;19.40;46.24;95648.78;4960817;28;20199;-91
2023/03/14 10:25:42;;;;;;;1.47;0.90;;;;;;;19.07;46.19;95610.25;4984935;28;20567;-90
2023/03/14 10:28:25;;;;;;;1.10;1.00;;;;;;;19.40;46.19;95653.88;4977167;28;20207;-90
2023/03/14 10:30:51;;;;;;;0.97;0.97;;;;;;;18.78;46.34;95564.19;4949994;28;20229;-91
2023/03/14 10:33:18;;;;;;;2.20;1.00;;;;;;;19.40;46.13;95656.41;4945021;28;20211;-90
2023/03/14 10:35:45;;;;;;;1.10;1.10;;;;;;;17.83;46.14;95392.06;4976717;28;20234;-91
2023/03/14 10:38:16;;;;;;;1.23;1.00;;;;;;;18.97;46.19;95570.28;4961023;28;20214;-90
2023/03/14 10:40:49;;;;;;;1.07;1.00;;;;;;;19.20;46.34;95615.47;4976048;28;20305;-91
2023/03/14 10:43:17;;;;;;;0.93;0.93;;;;;;;18.72;46.21;95517.50;4957958;28;20629;-90
2023/03/14 10:45:44;;;;;;;3.37;1.40;;;;;;;18.95;46.26;95571.97;4957270;28;20214;-90
2023/03/14 10:48:14;;;;;;;1.93;1.20;;;;;;;19.40;46.41;95638.56;4960912;28;20207;-92
2023/03/14 10:51:04;;;;;;;2.17;1.10;;;;;;;18.93;46.39;95555.84;4985835;28;20223;-91
2023/03/14 10:53:44;;;;;;;3.40;1.10;;;;;;;19.41;46.47;95650.47;4942714;28;20215;-92
2023/03/14 10:56:14;;;;;;;0.90;0.90;;;;;;;18.73;46.42;95529.34;4977091;28;20254;-90
2023/03/14 10:58:45;;;;;;;1.77;1.30;;;;;;;18.79;46.35;95534.50;4974941;28;20226;-90
2023/03/14 11:01:15;;;;;;;2.10;1.00;;;;;;;19.40;46.27;95639.44;4944000;28;20326;-91
2023/03/14 11:03:44;;;;;;;0.90;0.90;;;;;;;18.54;46.22;95492.75;4975560;28;20213;-91
2023/03/14 11:06:14;;;;;;;1.60;1.20;;;;;;;18.21;46.13;95436.50;4960747;28;20199;-91
2023/03/14 11:08:53;;;;;;;1.37;1.07;;;;;;;18.85;46.14;95558.31;4941733;28;20221;-91
2023/03/14 11:11:23;;;;;;;0.87;0.87;;;;;;;18.64;46.37;95504.69;4970534;28;20263;-91
2023/03/14 11:14:34;;;;;;;1.00;1.00;;;;;;;19.41;46.32;95633.50;4946533;28;20218;-91
2023/03/14 11:17:30;;;;;;;1.20;1.10;;;;;;;19.42;46.16;95636.91;4982937;28;20235;-90
2023/03/14 11:20:09;;;;;;;1.50;1.20;;;;;;;19.42;46.27;95629.25;4980648;28;20331;-90
2023/03/14 11:22:50;;;;;;;0.97;0.97;;;;;;;19.42;46.29;95627.56;4990195;28;20207;-90
2023/03/14 11:25:27;;;;;;;1.10;1.00;;;;;;;19.41;46.36;95620.75;4974381;28;20695;-91
2023/03/14 11:28:16;;;;;;;1.20;1.10;;;;;;;19.41;46.20;95625.84;4954812;28;20250;-90
2023/03/14 11:30:53;;;;;;;1.50;1.00;;;;;;;18.80;46.30;95519.25;4990597;28;20226;-91
2023/03/14 11:33:28;;;;;;;0.90;0.90;;;;;;;18.16;45.99;95400.84;4959969;28;20218;-91
2023/03/14 11:35:58;;;;;;;1.10;1.10;;;;;;;19.41;46.36;95602.94;4959976;28;20310;-91
2023/03/14 11:38:41;;;;;;;1.30;1.20;;;;;;;18.57;46.25;95464.81;4967828;28;20285;-90
2023/03/14 11:41:10;;;;;;;1.17;1.00;;;;;;;19.05;46.29;95553.38;4957949;28;20247;-91